createdAt,value
2024-04-21T00:00:18.932Z,962.6
2024-04-21T00:01:24.119Z,962.6
2024-04-21T00:02:29.253Z,962.6
2024-04-21T00:03:35.402Z,962.6
2024-04-21T00:04:41.567Z,962.6
2024-04-21T00:05:47.703Z,962.6
2024-04-21T00:08:00.002Z,962.6
2024-04-21T00:09:06.114Z,962.5
2024-04-21T00:10:12.257Z,962.5
2024-04-21T00:11:18.403Z,962.6
2024-04-21T00:12:24.545Z,962.5
2024-04-21T00:13:30.711Z,962.5
2024-04-21T00:14:36.836Z,962.5
2024-04-21T00:15:42.995Z,962.5
2024-04-21T00:16:48.128Z,962.5
2024-04-21T00:17:54.288Z,962.5
2024-04-21T00:19:00.441Z,962.5
2024-04-21T00:21:12.694Z,962.5
2024-04-21T00:23:24.034Z,962.5
2024-04-21T00:24:29.230Z,962.5
2024-04-21T00:25:35.342Z,962.4
2024-04-21T00:26:40.492Z,962.4
2024-04-21T00:27:46.645Z,962.4
2024-04-21T00:28:52.794Z,962.4
2024-04-21T00:29:58.930Z,962.4
2024-04-21T00:31:05.072Z,962.4
2024-04-21T00:32:11.212Z,962.4
2024-04-21T00:33:17.359Z,962.4
2024-04-21T00:34:23.501Z,962.3
2024-04-21T00:35:28.676Z,962.3
2024-04-21T00:37:39.971Z,962.3
2024-04-21T00:38:46.124Z,962.3
2024-04-21T00:39:52.265Z,962.3
2024-04-21T00:43:10.924Z,962.3
2024-04-21T00:44:16.830Z,962.3
2024-04-21T00:45:22.999Z,962.3
2024-04-21T00:46:29.134Z,962.2
2024-04-21T00:47:35.273Z,962.2
2024-04-21T00:48:41.419Z,962.2
2024-04-21T00:50:52.729Z,962.2
2024-04-21T00:51:57.902Z,962.2
2024-04-21T00:53:03.070Z,962.2
2024-04-21T00:54:09.212Z,962.2
2024-04-21T00:55:15.343Z,962.1
2024-04-21T00:58:33.791Z,962.1
2024-04-21T01:00:46.078Z,962.1
2024-04-21T01:01:52.217Z,962.1
2024-04-21T01:02:58.362Z,962.1
2024-04-21T01:04:04.500Z,962.1
2024-04-21T01:05:10.636Z,962.1
2024-04-21T01:06:16.777Z,962.1
2024-04-21T01:07:21.940Z,962.1
2024-04-21T01:08:28.097Z,962.1
2024-04-21T01:09:34.236Z,962.1
2024-04-21T01:10:40.380Z,962.1
2024-04-21T01:11:46.515Z,962
2024-04-21T01:12:52.660Z,962
2024-04-21T01:13:58.817Z,962
2024-04-21T01:15:04.953Z,962
2024-04-21T01:16:11.096Z,962
2024-04-21T01:17:17.229Z,962
2024-04-21T01:18:23.398Z,962
2024-04-21T01:20:35.653Z,962
2024-04-21T01:21:40.824Z,962
2024-04-21T01:22:46.960Z,962
2024-04-21T01:23:52.134Z,962
2024-04-21T01:24:57.304Z,962
2024-04-21T01:27:09.588Z,961.9
2024-04-21T01:28:15.728Z,961.9
2024-04-21T01:29:21.865Z,961.9
2024-04-21T01:30:28.162Z,961.9
2024-04-21T01:31:34.144Z,961.9
2024-04-21T01:32:40.297Z,961.9
2024-04-21T01:33:46.464Z,961.9
2024-04-21T01:34:52.585Z,961.9
2024-04-21T01:35:58.735Z,961.9
2024-04-21T01:37:04.867Z,961.9
2024-04-21T01:38:11.011Z,961.9
2024-04-21T01:39:16.185Z,961.8
2024-04-21T01:40:22.330Z,961.8
2024-04-21T01:41:28.468Z,961.8
2024-04-21T01:42:34.607Z,961.8
2024-04-21T01:43:40.754Z,961.8
2024-04-21T01:45:53.041Z,961.8
2024-04-21T01:46:59.223Z,961.8
2024-04-21T01:48:04.360Z,961.8
2024-04-21T01:49:10.493Z,961.7
2024-04-21T01:50:15.723Z,961.7
2024-04-21T01:51:20.824Z,961.7
2024-04-21T01:52:26.953Z,961.7
2024-04-21T01:53:33.147Z,961.7
2024-04-21T01:56:51.529Z,961.6
2024-04-21T01:57:57.677Z,961.6
2024-04-21T01:59:03.828Z,961.6
2024-04-21T02:00:09.968Z,961.5
2024-04-21T02:01:16.134Z,961.5
2024-04-21T02:02:22.254Z,961.4
2024-04-21T02:03:27.458Z,961.4
2024-04-21T02:04:32.570Z,961.4
2024-04-21T02:05:38.728Z,961.4
2024-04-21T02:06:44.868Z,961.4
2024-04-21T02:07:51.015Z,961.4
2024-04-21T02:10:03.304Z,961.3
2024-04-21T02:12:15.597Z,961.3
2024-04-21T02:13:21.729Z,961.3
2024-04-21T02:14:27.878Z,961.3
2024-04-21T02:15:34.032Z,961.3
2024-04-21T02:16:39.175Z,961.3
2024-04-21T02:19:56.707Z,961.3
2024-04-21T02:21:02.789Z,961.3
2024-04-21T02:22:08.945Z,961.3
2024-04-21T02:23:15.062Z,961.2
2024-04-21T02:24:21.216Z,961.2
2024-04-21T02:25:27.377Z,961.2
2024-04-21T02:26:33.497Z,961.2
2024-04-21T02:27:39.644Z,961.2
2024-04-21T02:28:45.804Z,961.2
2024-04-21T02:29:51.933Z,961.2
2024-04-21T02:30:58.077Z,961.2
2024-04-21T02:32:03.235Z,961.2
2024-04-21T02:33:09.396Z,961.2
2024-04-21T02:34:15.528Z,961.2
2024-04-21T02:35:21.655Z,961.1
2024-04-21T02:36:27.826Z,961.1
2024-04-21T02:37:33.940Z,961.1
2024-04-21T02:38:40.092Z,961.1
2024-04-21T02:39:46.233Z,961.1
2024-04-21T02:41:58.530Z,961.1
2024-04-21T02:43:04.679Z,961.1
2024-04-21T02:44:10.809Z,961.1
2024-04-21T02:45:16.001Z,961.1
2024-04-21T02:46:22.119Z,961
2024-04-21T02:47:27.279Z,961
2024-04-21T02:48:33.412Z,961
2024-04-21T02:49:39.563Z,961
2024-04-21T02:50:45.711Z,961
2024-04-21T02:51:51.870Z,961
2024-04-21T02:52:58.034Z,961
2024-04-21T02:54:04.147Z,961
2024-04-21T02:55:10.284Z,960.9
2024-04-21T02:56:15.478Z,960.9
2024-04-21T02:57:20.619Z,960.9
2024-04-21T02:58:26.758Z,960.9
2024-04-21T02:59:32.903Z,960.9
2024-04-21T03:00:39.045Z,960.9
2024-04-21T03:01:45.206Z,960.8
2024-04-21T03:02:51.330Z,960.8
2024-04-21T03:03:57.464Z,960.8
2024-04-21T03:05:03.618Z,960.8
2024-04-21T03:06:09.768Z,960.8
2024-04-21T03:07:15.917Z,960.8
2024-04-21T03:10:34.351Z,960.7
2024-04-21T03:11:40.490Z,960.7
2024-04-21T03:12:45.650Z,960.7
2024-04-21T03:16:03.098Z,960.7
2024-04-21T03:17:09.266Z,960.7
2024-04-21T03:19:21.568Z,960.7
2024-04-21T03:20:27.674Z,960.6
2024-04-21T03:21:33.987Z,960.6
2024-04-21T03:22:39.963Z,960.6
2024-04-21T03:23:46.111Z,960.6
2024-04-21T03:24:52.246Z,960.6
2024-04-21T03:25:58.427Z,960.6
2024-04-21T03:27:03.571Z,960.6
2024-04-21T03:29:14.863Z,960.5
2024-04-21T03:31:27.149Z,960.5
2024-04-21T03:32:33.292Z,960.5
2024-04-21T03:33:39.433Z,960.5
2024-04-21T03:34:45.585Z,960.5
2024-04-21T03:36:57.875Z,960.5
2024-04-21T03:38:04.005Z,960.5
2024-04-21T03:39:10.160Z,960.5
2024-04-21T03:40:16.296Z,960.5
2024-04-21T03:42:28.622Z,960.5
2024-04-21T03:44:39.890Z,960.5
2024-04-21T03:45:46.047Z,960.5
2024-04-21T03:46:52.182Z,960.4
2024-04-21T03:47:58.312Z,960.4
2024-04-21T03:49:04.472Z,960.4
2024-04-21T03:50:10.605Z,960.4
2024-04-21T03:51:16.749Z,960.3
2024-04-21T03:52:22.889Z,960.3
2024-04-21T03:53:29.032Z,960.3
2024-04-21T03:54:35.183Z,960.3
2024-04-21T03:55:41.318Z,960.3
2024-04-21T03:56:47.496Z,960.3
2024-04-21T04:00:05.905Z,960.3
2024-04-21T04:01:11.052Z,960.3
2024-04-21T04:02:17.200Z,960.3
2024-04-21T04:03:23.341Z,960.3
2024-04-21T04:04:29.488Z,960.3
2024-04-21T04:05:35.638Z,960.2
2024-04-21T04:06:41.771Z,960.2
2024-04-21T04:08:54.050Z,960.2
2024-04-21T04:12:12.491Z,960.2
2024-04-21T04:15:30.954Z,960.1
2024-04-21T04:16:36.105Z,960.1
2024-04-21T04:17:42.214Z,960.1
2024-04-21T04:18:48.409Z,960.1
2024-04-21T04:21:00.669Z,960.1
2024-04-21T04:22:06.799Z,960.2
2024-04-21T04:23:12.940Z,960.1
2024-04-21T04:24:19.090Z,960.1
2024-04-21T04:25:25.235Z,960.1
2024-04-21T04:27:37.532Z,960.2
2024-04-21T04:28:43.662Z,960.2
2024-04-21T04:29:49.800Z,960.1
2024-04-21T04:30:54.969Z,960.1
2024-04-21T04:32:01.151Z,960.1
2024-04-21T04:33:07.268Z,960.1
2024-04-21T04:35:19.540Z,960.1
2024-04-21T04:36:25.678Z,960.1
2024-04-21T04:37:31.823Z,960.1
2024-04-21T04:38:37.968Z,960
2024-04-21T04:39:44.111Z,960
2024-04-21T04:40:50.267Z,960
2024-04-21T04:41:56.403Z,959.9
2024-04-21T04:43:02.547Z,959.9
2024-04-21T04:44:08.669Z,959.9
2024-04-21T04:45:13.848Z,959.9
2024-04-21T04:46:20.054Z,959.9
2024-04-21T04:47:26.129Z,959.9
2024-04-21T04:48:32.305Z,959.8
2024-04-21T04:51:50.731Z,959.8
2024-04-21T04:52:56.854Z,959.8
2024-04-21T04:54:02.991Z,959.8
2024-04-21T04:55:09.125Z,959.7
2024-04-21T04:56:15.285Z,959.7
2024-04-21T04:57:21.416Z,959.7
2024-04-21T04:58:27.571Z,959.7
2024-04-21T04:59:32.721Z,959.7
2024-04-21T05:01:45.014Z,959.7
2024-04-21T05:02:51.153Z,959.7
2024-04-21T05:05:03.538Z,959.7
2024-04-21T05:06:09.607Z,959.7
2024-04-21T05:07:15.730Z,959.7
2024-04-21T05:08:21.904Z,959.7
2024-04-21T05:09:28.039Z,959.7
2024-04-21T05:10:34.202Z,959.7
2024-04-21T05:11:40.442Z,959.7
2024-04-21T05:12:46.565Z,959.7
2024-04-21T05:13:51.720Z,959.7
2024-04-21T05:14:57.903Z,959.7
2024-04-21T05:16:04.011Z,959.7
2024-04-21T05:17:10.158Z,959.8
2024-04-21T05:18:16.302Z,959.8
2024-04-21T05:20:28.606Z,959.8
2024-04-21T05:21:34.769Z,959.8
2024-04-21T05:22:40.883Z,959.8
2024-04-21T05:24:53.173Z,959.7
2024-04-21T05:25:59.311Z,959.7
2024-04-21T05:27:05.450Z,959.8
2024-04-21T05:28:10.620Z,959.8
2024-04-21T05:31:28.071Z,959.8
2024-04-21T05:32:33.215Z,959.8
2024-04-21T05:34:45.519Z,959.8
2024-04-21T05:36:57.801Z,959.8
2024-04-21T05:38:03.968Z,959.8
2024-04-21T05:39:10.122Z,959.8
2024-04-21T05:41:22.381Z,959.8
2024-04-21T05:42:28.533Z,959.8
2024-04-21T05:43:34.678Z,959.8
2024-04-21T05:44:40.830Z,959.7
2024-04-21T05:45:46.956Z,959.7
2024-04-21T05:46:52.114Z,959.7
2024-04-21T05:47:58.264Z,959.7
2024-04-21T05:49:04.406Z,959.7
2024-04-21T05:50:10.551Z,959.7
2024-04-21T05:51:16.679Z,959.7
2024-04-21T05:53:28.970Z,959.7
2024-04-21T05:54:35.129Z,959.7
2024-04-21T05:57:53.536Z,959.6
2024-04-21T05:58:59.691Z,959.6
2024-04-21T06:00:05.841Z,959.6
2024-04-21T06:01:10.986Z,959.6
2024-04-21T06:02:17.130Z,959.6
2024-04-21T06:04:29.413Z,959.6
2024-04-21T06:05:35.592Z,959.6
2024-04-21T06:06:41.706Z,959.6
2024-04-21T06:07:47.852Z,959.6
2024-04-21T06:08:54.007Z,959.6
2024-04-21T06:10:00.140Z,959.6
2024-04-21T06:11:06.291Z,959.5
2024-04-21T06:12:12.427Z,959.5
2024-04-21T06:13:18.590Z,959.5
2024-04-21T06:14:24.716Z,959.5
2024-04-21T06:15:29.884Z,959.5
2024-04-21T06:16:36.014Z,959.5
2024-04-21T06:17:42.167Z,959.5
2024-04-21T06:18:48.303Z,959.5
2024-04-21T06:19:54.457Z,959.5
2024-04-21T06:21:00.596Z,959.5
2024-04-21T06:22:06.758Z,959.5
2024-04-21T06:23:11.902Z,959.5
2024-04-21T06:24:17.067Z,959.5
2024-04-21T06:25:23.198Z,959.5
2024-04-21T06:26:29.342Z,959.5
2024-04-21T06:27:35.521Z,959.5
2024-04-21T06:28:41.631Z,959.5
2024-04-21T06:29:47.772Z,959.5
2024-04-21T06:30:53.921Z,959.5
2024-04-21T06:32:00.064Z,959.4
2024-04-21T06:33:06.213Z,959.4
2024-04-21T06:34:11.377Z,959.4
2024-04-21T06:35:16.532Z,959.4
2024-04-21T06:36:22.818Z,959.3
2024-04-21T06:37:28.949Z,959.3
2024-04-21T06:39:41.234Z,959.3
2024-04-21T06:40:47.379Z,959.3
2024-04-21T06:42:59.665Z,959.3
2024-04-21T06:44:05.835Z,959.3
2024-04-21T06:45:11.940Z,959.3
2024-04-21T06:46:18.121Z,959.3
2024-04-21T06:47:23.263Z,959.3
2024-04-21T06:50:40.713Z,959.3
2024-04-21T06:52:53.008Z,959.2
2024-04-21T06:53:59.142Z,959.2
2024-04-21T06:55:05.290Z,959.2
2024-04-21T06:56:11.431Z,959.2
2024-04-21T06:57:17.581Z,959.2
2024-04-21T06:58:23.757Z,959.2
2024-04-21T07:00:36.086Z,959.1
2024-04-21T07:01:42.151Z,959.2
2024-04-21T07:03:53.462Z,959.2
2024-04-21T07:04:58.648Z,959.2
2024-04-21T07:06:04.780Z,959.2
2024-04-21T07:07:09.942Z,959.1
2024-04-21T07:08:16.093Z,959.1
2024-04-21T07:09:22.233Z,959.1
2024-04-21T07:10:28.366Z,959.1
2024-04-21T07:11:34.510Z,959.1
2024-04-21T07:13:46.797Z,959.1
2024-04-21T07:14:52.943Z,959.1
2024-04-21T07:15:59.088Z,959.1
2024-04-21T07:17:05.244Z,959.1
2024-04-21T07:19:17.515Z,959.1
2024-04-21T07:20:23.663Z,959.1
2024-04-21T07:21:28.823Z,959.1
2024-04-21T07:22:34.984Z,959.1
2024-04-21T07:23:41.109Z,959.1
2024-04-21T07:24:47.256Z,959.1
2024-04-21T07:26:59.565Z,959.1
2024-04-21T07:28:05.710Z,959
2024-04-21T07:29:11.818Z,959
2024-04-21T07:30:17.975Z,959
2024-04-21T07:31:24.115Z,959
2024-04-21T07:32:30.249Z,959
2024-04-21T07:33:36.467Z,959
2024-04-21T07:36:54.823Z,959
2024-04-21T07:37:59.980Z,959
2024-04-21T07:39:06.132Z,959
2024-04-21T07:40:12.278Z,959
2024-04-21T07:42:24.566Z,959
2024-04-21T07:43:30.694Z,959
2024-04-21T07:44:36.851Z,959
2024-04-21T07:45:42.995Z,959
2024-04-21T07:46:49.134Z,959
2024-04-21T07:49:01.445Z,959
2024-04-21T07:50:07.600Z,959
2024-04-21T07:51:13.751Z,959
2024-04-21T07:52:18.861Z,958.9
2024-04-21T07:53:25.007Z,958.9
2024-04-21T07:54:31.161Z,958.9
2024-04-21T07:55:37.299Z,958.9
2024-04-21T07:56:43.450Z,958.9
2024-04-21T07:57:49.582Z,958.9
2024-04-21T08:00:01.868Z,958.9
2024-04-21T08:01:08.017Z,958.9
2024-04-21T08:02:14.163Z,958.9
2024-04-21T08:03:20.300Z,958.8
2024-04-21T08:05:32.589Z,958.8
2024-04-21T08:06:37.768Z,958.9
2024-04-21T08:07:43.888Z,958.9
2024-04-21T08:08:50.059Z,958.8
2024-04-21T08:09:56.177Z,958.8
2024-04-21T08:11:02.323Z,958.8
2024-04-21T08:12:08.490Z,958.8
2024-04-21T08:13:14.607Z,958.8
2024-04-21T08:15:27.010Z,958.8
2024-04-21T08:16:33.175Z,958.8
2024-04-21T08:18:45.458Z,958.8
2024-04-21T08:19:51.631Z,958.8
2024-04-21T08:23:09.071Z,958.8
2024-04-21T08:24:15.190Z,958.8
2024-04-21T08:25:21.336Z,958.8
2024-04-21T08:26:27.472Z,958.8
2024-04-21T08:29:45.906Z,958.8
2024-04-21T08:30:52.035Z,958.8
2024-04-21T08:31:58.178Z,958.8
2024-04-21T08:33:04.341Z,958.7
2024-04-21T08:34:10.473Z,958.7
2024-04-21T08:36:21.779Z,958.7
2024-04-21T08:37:27.934Z,958.7
2024-04-21T08:38:34.067Z,958.7
2024-04-21T08:39:40.230Z,958.7
2024-04-21T08:40:46.348Z,958.7
2024-04-21T08:42:58.634Z,958.7
2024-04-21T08:44:04.788Z,958.8
2024-04-21T08:45:10.937Z,958.8
2024-04-21T08:46:17.070Z,958.8
2024-04-21T08:47:23.212Z,958.9
2024-04-21T08:49:35.511Z,958.9
2024-04-21T08:51:46.810Z,959
2024-04-21T08:52:52.941Z,959
2024-04-21T08:53:59.093Z,959.1
2024-04-21T08:55:05.234Z,959.1
2024-04-21T08:56:11.416Z,959.1
2024-04-21T08:57:17.522Z,959.1
2024-04-21T08:58:23.667Z,959.1
2024-04-21T08:59:29.812Z,959.1
2024-04-21T09:00:35.942Z,959.1
2024-04-21T09:01:42.127Z,959.2
2024-04-21T09:02:48.245Z,959.1
2024-04-21T09:03:54.373Z,959.2
2024-04-21T09:04:59.542Z,959.1
2024-04-21T09:06:05.685Z,959.1
2024-04-21T09:08:17.975Z,959.1
2024-04-21T09:09:24.108Z,959.1
2024-04-21T09:10:30.256Z,959.1
2024-04-21T09:11:36.414Z,959.1
2024-04-21T09:12:42.546Z,959.1
2024-04-21T09:13:48.688Z,959.1
2024-04-21T09:14:53.868Z,959.1
2024-04-21T09:15:59.026Z,959.1
2024-04-21T09:17:05.185Z,959.1
2024-04-21T09:18:11.311Z,959.2
2024-04-21T09:19:17.466Z,959.2
2024-04-21T09:20:23.601Z,959.1
2024-04-21T09:21:29.737Z,959.2
2024-04-21T09:22:35.915Z,959.2
2024-04-21T09:23:42.045Z,959.2
2024-04-21T09:24:48.189Z,959.2
2024-04-21T09:25:53.354Z,959.2
2024-04-21T09:26:58.515Z,959.3
2024-04-21T09:28:04.652Z,959.3
2024-04-21T09:29:10.824Z,959.3
2024-04-21T09:30:16.946Z,959.4
2024-04-21T09:31:23.159Z,959.4
2024-04-21T09:32:29.230Z,959.4
2024-04-21T09:33:35.380Z,959.5
2024-04-21T09:34:41.523Z,959.5
2024-04-21T09:35:47.651Z,959.5
2024-04-21T09:36:53.800Z,959.5
2024-04-21T09:37:59.961Z,959.5
2024-04-21T09:39:06.084Z,959.5
2024-04-21T09:40:12.229Z,959.5
2024-04-21T09:41:17.403Z,959.5
2024-04-21T09:42:23.536Z,959.5
2024-04-21T09:43:29.684Z,959.5
2024-04-21T09:44:35.816Z,959.6
2024-04-21T09:45:41.973Z,959.6
2024-04-21T09:46:48.108Z,959.6
2024-04-21T09:47:54.252Z,959.6
2024-04-21T09:49:00.407Z,959.7
2024-04-21T09:50:06.559Z,959.7
2024-04-21T09:51:12.679Z,959.7
2024-04-21T09:52:18.835Z,959.6
2024-04-21T09:53:24.977Z,959.6
2024-04-21T09:54:31.113Z,959.6
2024-04-21T09:55:36.283Z,959.7
2024-04-21T09:56:42.435Z,959.7
2024-04-21T09:57:48.571Z,959.6
2024-04-21T09:58:54.702Z,959.6
2024-04-21T10:00:00.854Z,959.7
2024-04-21T10:01:06.980Z,959.7
2024-04-21T10:02:13.151Z,959.7
2024-04-21T10:03:19.269Z,959.7
2024-04-21T10:04:25.419Z,959.6
2024-04-21T10:05:31.554Z,959.7
2024-04-21T10:06:37.705Z,959.7
2024-04-21T10:07:43.845Z,959.7
2024-04-21T10:08:49.984Z,959.7
2024-04-21T10:09:55.148Z,959.7
2024-04-21T10:11:01.311Z,959.7
2024-04-21T10:12:07.436Z,959.8
2024-04-21T10:13:13.598Z,959.8
2024-04-21T10:14:19.708Z,959.8
2024-04-21T10:15:25.868Z,959.8
2024-04-21T10:16:32.012Z,959.8
2024-04-21T10:17:38.153Z,959.8
2024-04-21T10:18:44.302Z,959.8
2024-04-21T10:19:50.455Z,959.8
2024-04-21T10:20:56.585Z,959.8
2024-04-21T10:22:02.723Z,959.8
2024-04-21T10:23:08.888Z,959.8
2024-04-21T10:24:14.029Z,959.8
2024-04-21T10:25:20.170Z,959.8
2024-04-21T10:26:26.347Z,959.8
2024-04-21T10:27:32.458Z,959.8
2024-04-21T10:28:38.602Z,959.9
2024-04-21T10:29:44.748Z,959.9
2024-04-21T10:30:50.881Z,959.9
2024-04-21T10:31:57.028Z,959.8
2024-04-21T10:33:03.177Z,959.9
2024-04-21T10:34:09.342Z,959.9
2024-04-21T10:35:15.489Z,959.9
2024-04-21T10:36:21.618Z,959.9
2024-04-21T10:37:27.748Z,959.9
2024-04-21T10:38:32.912Z,959.9
2024-04-21T10:39:39.052Z,959.8
2024-04-21T10:40:45.212Z,959.8
2024-04-21T10:41:51.332Z,959.8
2024-04-21T10:42:57.501Z,959.8
2024-04-21T10:44:03.678Z,959.8
2024-04-21T10:45:09.770Z,959.8
2024-04-21T10:46:15.913Z,959.9
2024-04-21T10:47:22.079Z,959.9
2024-04-21T10:48:28.201Z,959.9
2024-04-21T10:49:34.359Z,959.8
2024-04-21T10:50:40.499Z,959.9
2024-04-21T10:51:46.628Z,959.9
2024-04-21T10:52:51.797Z,959.9
2024-04-21T10:53:57.935Z,959.9
2024-04-21T10:55:04.080Z,959.9
2024-04-21T10:56:10.220Z,959.8
2024-04-21T10:57:16.384Z,959.8
2024-04-21T10:58:22.495Z,959.8
2024-04-21T10:59:28.652Z,959.8
2024-04-21T11:00:34.796Z,959.9
2024-04-21T11:01:40.961Z,959.9
2024-04-21T11:02:47.082Z,959.9
2024-04-21T11:03:53.240Z,959.9
2024-04-21T11:04:59.355Z,959.9
2024-04-21T11:06:05.525Z,959.9
2024-04-21T11:07:10.681Z,959.9
2024-04-21T11:08:16.834Z,959.9
2024-04-21T11:09:22.947Z,959.9
2024-04-21T11:10:29.191Z,959.9
2024-04-21T11:11:35.249Z,959.9
2024-04-21T11:12:41.404Z,959.9
2024-04-21T11:13:47.534Z,959.9
2024-04-21T11:14:53.688Z,959.9
2024-04-21T11:15:59.825Z,959.9
2024-04-21T11:17:05.964Z,959.9
2024-04-21T11:18:12.114Z,959.9
2024-04-21T11:19:18.263Z,959.9
2024-04-21T11:20:24.407Z,959.9
2024-04-21T11:21:29.550Z,959.9
2024-04-21T11:22:35.711Z,959.9
2024-04-21T11:23:41.855Z,959.8
2024-04-21T11:24:47.987Z,959.8
2024-04-21T11:25:54.129Z,959.8
2024-04-21T11:27:00.268Z,959.8
2024-04-21T11:28:06.414Z,959.8
2024-04-21T11:29:12.551Z,959.8
2024-04-21T11:30:18.697Z,959.7
2024-04-21T11:31:24.853Z,959.7
2024-04-21T11:32:30.990Z,959.7
2024-04-21T11:33:37.124Z,959.7
2024-04-21T11:34:43.275Z,959.7
2024-04-21T11:35:49.417Z,959.6
2024-04-21T11:36:55.567Z,959.6
2024-04-21T11:38:00.703Z,959.6
2024-04-21T11:39:06.865Z,959.6
2024-04-21T11:40:13.002Z,959.6
2024-04-21T11:41:19.156Z,959.6
2024-04-21T11:42:25.286Z,959.6
2024-04-21T11:43:31.440Z,959.7
2024-04-21T11:44:37.575Z,959.7
2024-04-21T11:45:43.906Z,959.5
2024-04-21T11:46:49.999Z,959.5
2024-04-21T11:47:56.004Z,959.6
2024-04-21T11:50:08.295Z,959.6
2024-04-21T11:51:14.437Z,959.6
2024-04-21T11:52:19.597Z,959.6
2024-04-21T11:53:25.731Z,959.5
2024-04-21T11:54:31.870Z,959.5
2024-04-21T11:56:44.178Z,959.6
2024-04-21T11:57:50.335Z,959.6
2024-04-21T12:00:02.586Z,959.6
2024-04-21T12:01:07.784Z,959.6
2024-04-21T12:02:12.946Z,959.6
2024-04-21T12:03:19.063Z,959.6
2024-04-21T12:04:25.212Z,959.6
2024-04-21T12:05:31.371Z,959.6
2024-04-21T12:06:37.499Z,959.6
2024-04-21T12:07:43.660Z,959.6
2024-04-21T12:08:49.798Z,959.6
2024-04-21T12:09:55.918Z,959.6
2024-04-21T12:11:02.067Z,959.6
2024-04-21T12:12:07.228Z,959.6
2024-04-21T12:13:12.404Z,959.6
2024-04-21T12:14:18.577Z,959.5
2024-04-21T12:15:24.682Z,959.5
2024-04-21T12:16:30.826Z,959.5
2024-04-21T12:17:36.963Z,959.5
2024-04-21T12:19:49.261Z,959.5
2024-04-21T12:20:55.400Z,959.5
2024-04-21T12:22:01.554Z,959.5
2024-04-21T12:23:07.672Z,959.4
2024-04-21T12:24:13.840Z,959.5
2024-04-21T12:25:19.975Z,959.5
2024-04-21T12:26:26.117Z,959.4
2024-04-21T12:27:31.277Z,959.4
2024-04-21T12:28:37.422Z,959.5
2024-04-21T12:29:43.566Z,959.5
2024-04-21T12:30:49.727Z,959.5
2024-04-21T12:31:55.852Z,959.5
2024-04-21T12:33:01.991Z,959.5
2024-04-21T12:34:08.124Z,959.5
2024-04-21T12:35:14.269Z,959.5
2024-04-21T12:36:20.426Z,959.5
2024-04-21T12:37:26.564Z,959.4
2024-04-21T12:38:32.709Z,959.4
2024-04-21T12:39:38.850Z,959.4
2024-04-21T12:40:44.988Z,959.5
2024-04-21T12:42:56.304Z,959.5
2024-04-21T12:44:02.448Z,959.5
2024-04-21T12:45:08.595Z,959.5
2024-04-21T12:47:21.009Z,959.6
2024-04-21T12:48:27.135Z,959.6
2024-04-21T12:49:33.266Z,959.6
2024-04-21T12:50:39.442Z,959.6
2024-04-21T12:52:51.709Z,959.6
2024-04-21T12:53:56.883Z,959.6
2024-04-21T12:55:03.036Z,959.6
2024-04-21T12:56:09.167Z,959.6
2024-04-21T12:57:14.334Z,959.6
2024-04-21T12:59:26.627Z,959.7
2024-04-21T13:00:32.763Z,959.7
2024-04-21T13:01:38.909Z,959.8
2024-04-21T13:02:45.043Z,959.8
2024-04-21T13:04:57.344Z,959.8
2024-04-21T13:06:03.492Z,959.8
2024-04-21T13:07:08.653Z,959.9
2024-04-21T13:08:13.817Z,959.9
2024-04-21T13:09:19.948Z,959.9
2024-04-21T13:10:26.084Z,959.9
2024-04-21T13:11:32.242Z,960
2024-04-21T13:14:50.677Z,960
2024-04-21T13:15:56.822Z,960.1
2024-04-21T13:17:02.949Z,960.1
2024-04-21T13:18:09.097Z,960.1
2024-04-21T13:19:15.250Z,960.1
2024-04-21T13:20:21.405Z,960.2
2024-04-21T13:21:27.529Z,960.2
2024-04-21T13:22:32.689Z,960.3
2024-04-21T13:23:38.837Z,960.3
2024-04-21T13:24:44.982Z,960.4
2024-04-21T13:25:51.124Z,960.4
2024-04-21T13:26:57.272Z,960.4
2024-04-21T13:28:03.405Z,960.4
2024-04-21T13:30:15.713Z,960.5
2024-04-21T13:31:21.855Z,960.5
2024-04-21T13:32:27.990Z,960.5
2024-04-21T13:33:34.136Z,960.5
2024-04-21T13:34:40.277Z,960.5
2024-04-21T13:35:46.410Z,960.5
2024-04-21T13:39:03.870Z,960.6
2024-04-21T13:40:10.009Z,960.5
2024-04-21T13:41:16.153Z,960.6
2024-04-21T13:43:28.432Z,960.6
2024-04-21T13:44:34.583Z,960.6
2024-04-21T13:45:40.724Z,960.6
2024-04-21T13:46:46.869Z,960.6
2024-04-21T13:47:53.012Z,960.6
2024-04-21T13:48:59.153Z,960.6
2024-04-21T13:50:05.318Z,960.6
2024-04-21T13:51:10.452Z,960.6
2024-04-21T13:52:16.608Z,960.7
2024-04-21T13:53:22.759Z,960.7
2024-04-21T13:54:28.888Z,960.7
2024-04-21T13:55:35.017Z,960.7
2024-04-21T13:56:41.185Z,960.7
2024-04-21T13:57:47.304Z,960.7
2024-04-21T13:58:53.474Z,960.7
2024-04-21T13:59:59.611Z,960.7
2024-04-21T14:01:05.761Z,960.6
2024-04-21T14:02:11.890Z,960.6
2024-04-21T14:03:18.038Z,960.5
2024-04-21T14:04:23.208Z,960.5
2024-04-21T14:05:28.357Z,960.5
2024-04-21T14:06:34.510Z,960.5
2024-04-21T14:07:40.665Z,960.5
2024-04-21T14:08:46.808Z,960.5
2024-04-21T14:10:59.083Z,960.5
2024-04-21T14:12:05.227Z,960.4
2024-04-21T14:13:11.364Z,960.4
2024-04-21T14:15:23.648Z,960.4
2024-04-21T14:16:29.797Z,960.4
2024-04-21T14:17:34.982Z,960.4
2024-04-21T14:19:46.270Z,960.4
2024-04-21T14:20:52.412Z,960.4
2024-04-21T14:23:04.707Z,960.4
2024-04-21T14:24:10.843Z,960.3
2024-04-21T14:25:16.993Z,960.3
2024-04-21T14:26:23.154Z,960.3
2024-04-21T14:27:29.275Z,960.4
2024-04-21T14:29:41.567Z,960.4
2024-04-21T14:30:47.701Z,960.3
2024-04-21T14:31:53.853Z,960.3
2024-04-21T14:32:58.997Z,960.4
2024-04-21T14:34:05.154Z,960.3
2024-04-21T14:36:17.524Z,960.3
2024-04-21T14:37:23.649Z,960.4
2024-04-21T14:38:29.802Z,960.4
2024-04-21T14:39:35.967Z,960.4
2024-04-21T14:40:42.086Z,960.5
2024-04-21T14:41:48.233Z,960.5
2024-04-21T14:42:54.388Z,960.5
2024-04-21T14:44:00.506Z,960.5
2024-04-21T14:46:12.809Z,960.5
2024-04-21T14:47:17.960Z,960.5
2024-04-21T14:48:24.104Z,960.5
2024-04-21T14:49:30.246Z,960.5
2024-04-21T14:51:42.539Z,960.5
2024-04-21T14:53:54.820Z,960.6
2024-04-21T14:55:00.970Z,960.6
2024-04-21T14:56:07.111Z,960.6
2024-04-21T14:59:25.572Z,960.6
2024-04-21T15:00:31.687Z,960.6
2024-04-21T15:01:36.847Z,960.6
2024-04-21T15:02:43.014Z,960.6
2024-04-21T15:03:49.133Z,960.6
2024-04-21T15:04:55.273Z,960.6
2024-04-21T15:06:01.417Z,960.6
2024-04-21T15:07:07.555Z,960.6
2024-04-21T15:08:13.720Z,960.6
2024-04-21T15:09:19.860Z,960.6
2024-04-21T15:11:32.144Z,960.6
2024-04-21T15:12:38.272Z,960.6
2024-04-21T15:14:50.569Z,960.6
2024-04-21T15:18:08.043Z,960.7
2024-04-21T15:19:14.145Z,960.7
2024-04-21T15:20:20.384Z,960.7
2024-04-21T15:21:26.575Z,960.8
2024-04-21T15:22:32.579Z,960.8
2024-04-21T15:23:38.767Z,960.8
2024-04-21T15:24:45.012Z,960.8
2024-04-21T15:25:51.094Z,960.7
2024-04-21T15:26:57.267Z,960.7
2024-04-21T15:28:03.427Z,960.7
2024-04-21T15:29:09.493Z,960.7
2024-04-21T15:31:20.744Z,960.7
2024-04-21T15:32:26.938Z,960.7
2024-04-21T15:33:33.028Z,960.8
2024-04-21T15:34:39.170Z,960.8
2024-04-21T15:35:45.327Z,960.7
2024-04-21T15:36:51.461Z,960.7
2024-04-21T15:37:57.607Z,960.7
2024-04-21T15:39:03.792Z,960.7
2024-04-21T15:41:16.045Z,960.8
2024-04-21T15:42:22.176Z,960.7
2024-04-21T15:44:34.454Z,960.8
2024-04-21T15:45:39.621Z,960.8
2024-04-21T15:46:45.777Z,960.8
2024-04-21T15:47:51.916Z,960.8
2024-04-21T15:48:58.075Z,960.8
2024-04-21T15:50:04.204Z,960.8
2024-04-21T15:51:10.346Z,960.8
2024-04-21T15:52:16.477Z,960.8
2024-04-21T15:53:22.628Z,960.8
2024-04-21T15:55:34.964Z,960.8
2024-04-21T15:56:41.068Z,960.8
2024-04-21T15:57:47.206Z,960.8
2024-04-21T15:58:53.350Z,960.8
2024-04-21T15:59:58.512Z,960.8
2024-04-21T16:02:10.836Z,960.8
2024-04-21T16:03:16.940Z,960.8
2024-04-21T16:04:23.091Z,960.8
2024-04-21T16:05:29.248Z,960.8
2024-04-21T16:06:35.369Z,960.8
2024-04-21T16:07:41.504Z,960.9
2024-04-21T16:08:47.688Z,960.9
2024-04-21T16:09:53.803Z,960.8
2024-04-21T16:12:06.087Z,960.8
2024-04-21T16:13:12.236Z,960.8
2024-04-21T16:14:18.374Z,960.8
2024-04-21T16:15:23.546Z,960.8
2024-04-21T16:16:29.681Z,960.8
2024-04-21T16:17:35.816Z,960.8
2024-04-21T16:18:41.953Z,960.8
2024-04-21T16:19:48.112Z,960.8
2024-04-21T16:20:54.251Z,960.8
2024-04-21T16:22:00.411Z,960.8
2024-04-21T16:23:06.541Z,960.8